Time;durP1;ratioP1;P1;durP2;ratioP2;P2;SDS_P1;SDS_P2;PMS_P1;PMS_P2;Temp;Humidity;BMP_temperature;BMP_pressure;BME280_temperature;BME280_humidity;BME280_pressure;Samples;Min_cycle;Max_cycle;Signal;HPM_P1;HPM_P2
2023/05/19 00:00:00;;;;;;;5.88;4.50;;;12.50;99.90;;;;;;4973019;28;20201;-78
2023/05/19 00:02:32;;;;;;;8.57;4.30;;;12.50;99.90;;;;;;4974039;28;20209;-78
2023/05/19 00:05:00;;;;;;;9.23;4.43;;;12.30;99.90;;;;;;4972579;28;20714;-78
2023/05/19 00:07:31;;;;;;;6.40;4.85;;;11.60;99.90;;;;;;4973572;28;20220;-78
2023/05/19 00:09:59;;;;;;;7.93;4.50;;;12.00;99.90;;;;;;4990380;28;20189;-78
2023/05/19 00:12:32;;;;;;;5.97;4.70;;;11.80;99.90;;;;;;4988545;28;20212;-78
2023/05/19 00:15:00;;;;;;;5.55;4.95;;;11.80;99.90;;;;;;4989439;28;20225;-78
2023/05/19 00:17:28;;;;;;;5.35;4.85;;;11.80;99.90;;;;;;4975696;28;20215;-78
2023/05/19 00:19:56;;;;;;;5.55;4.43;;;11.80;99.90;;;;;;4969530;28;20684;-78
2023/05/19 00:22:24;;;;;;;6.80;4.82;;;11.70;99.90;;;;;;4987140;28;20224;-78
2023/05/19 00:24:52;;;;;;;9.48;4.78;;;11.70;99.90;;;;;;4971552;28;20221;-78
2023/05/19 00:27:19;;;;;;;6.20;4.72;;;11.80;99.90;;;;;;4968363;28;20208;-78
2023/05/19 00:29:47;;;;;;;7.30;4.57;;;12.00;99.90;;;;;;4972994;28;20197;-78
2023/05/19 00:32:14;;;;;;;6.93;4.80;;;12.00;99.90;;;;;;4984985;28;20201;-78
2023/05/19 00:34:43;;;;;;;7.03;5.13;;;11.80;99.90;;;;;;4987865;28;20225;-78
2023/05/19 00:37:10;;;;;;;5.55;4.43;;;11.80;99.90;;;;;;4987866;28;20204;-78
2023/05/19 00:39:38;;;;;;;7.28;4.57;;;11.90;99.90;;;;;;4968236;28;20193;-78
2023/05/19 00:42:06;;;;;;;5.68;4.15;;;11.90;99.90;;;;;;4969631;28;20737;-78
2023/05/19 00:44:33;;;;;;;5.32;4.38;;;12.00;99.90;;;;;;4984066;28;20375;-78
2023/05/19 00:47:01;;;;;;;7.07;4.72;;;12.00;99.90;;;;;;4971198;28;20201;-78
2023/05/19 00:49:28;;;;;;;7.40;4.85;;;12.00;99.90;;;;;;4971627;28;20568;-78
2023/05/19 00:51:59;;;;;;;5.35;4.07;;;12.00;99.90;;;;;;4967205;28;20194;-78
2023/05/19 00:54:27;;;;;;;6.43;4.90;;;12.20;99.90;;;;;;4966770;28;20221;-78
2023/05/19 00:56:55;;;;;;;6.13;4.32;;;12.20;99.90;;;;;;4984795;28;20794;-78
2023/05/19 00:59:23;;;;;;;6.45;4.30;;;12.10;99.90;;;;;;4966524;28;20205;-78
2023/05/19 01:01:51;;;;;;;5.15;4.15;;;12.00;99.90;;;;;;4967105;28;20212;-78
2023/05/19 01:04:20;;;;;;;6.68;4.40;;;12.10;99.90;;;;;;4971178;28;20236;-78
2023/05/19 01:06:53;;;;;;;8.35;4.68;;;12.00;99.90;;;;;;4981559;28;20204;-78
2023/05/19 01:09:22;;;;;;;6.63;4.40;;;12.10;99.90;;;;;;4968051;28;20198;-78
2023/05/19 01:11:50;;;;;;;9.48;4.72;;;11.70;99.90;;;;;;4986388;28;20659;-79
2023/05/19 01:14:18;;;;;;;8.45;4.80;;;11.50;99.90;;;;;;4966778;28;20217;-78
2023/05/19 01:16:50;;;;;;;8.43;4.80;;;11.30;99.90;;;;;;4982052;28;20215;-78
2023/05/19 01:19:35;;;;;;;9.02;4.93;;;11.30;99.90;;;;;;4978464;28;20197;-78
2023/05/19 01:22:21;;;;;;;7.75;5.13;;;11.50;99.90;;;;;;4984574;28;20226;-78
2023/05/19 01:25:31;;;;;;;8.00;5.13;;;11.30;99.90;;;;;;4984348;28;20615;-78
2023/05/19 01:28:31;;;;;;;6.82;4.78;;;11.40;99.90;;;;;;4948788;28;20213;-78
2023/05/19 01:31:02;;;;;;;7.90;4.97;;;11.10;99.90;;;;;;4969725;28;20201;-78
2023/05/19 01:33:32;;;;;;;5.97;4.55;;;11.00;99.90;;;;;;4970306;28;20239;-78
2023/05/19 01:36:02;;;;;;;6.55;4.70;;;11.10;99.90;;;;;;4965423;28;20207;-78
2023/05/19 01:38:32;;;;;;;5.93;4.72;;;11.10;99.90;;;;;;4970366;28;20204;-78
2023/05/19 01:41:00;;;;;;;8.52;5.18;;;11.20;99.90;;;;;;4980562;28;20596;-78
2023/05/19 01:43:29;;;;;;;4.82;4.40;;;11.00;99.90;;;;;;4970955;28;20232;-78
2023/05/19 01:45:59;;;;;;;6.45;5.15;;;11.10;99.90;;;;;;4984525;28;20193;-78
2023/05/19 01:48:29;;;;;;;8.75;4.90;;;10.90;99.90;;;;;;4965365;28;20667;-78
2023/05/19 01:50:58;;;;;;;5.95;4.45;;;11.00;99.90;;;;;;4987229;28;20200;-78
2023/05/19 01:53:26;;;;;;;7.30;4.82;;;11.10;99.90;;;;;;4967799;28;20216;-78
2023/05/19 01:55:55;;;;;;;9.90;5.05;;;11.00;99.90;;;;;;4970703;28;20205;-78
2023/05/19 01:58:35;;;;;;;9.80;5.22;;;11.10;99.90;;;;;;4968244;28;20603;-78
2023/05/19 02:01:11;;;;;;;9.23;5.53;;;11.10;99.90;;;;;;4984032;28;20216;-78
2023/05/19 02:04:12;;;;;;;8.88;5.25;;;11.10;99.90;;;;;;4970615;28;20228;-78
2023/05/19 02:06:44;;;;;;;8.35;5.18;;;11.00;99.90;;;;;;4966604;28;20205;-78
2023/05/19 02:09:23;;;;;;;7.75;4.97;;;10.90;99.90;;;;;;4970987;28;20564;-78
2023/05/19 02:11:55;;;;;;;6.43;4.85;;;10.80;99.90;;;;;;4968533;28;20540;-77
2023/05/19 02:14:35;;;;;;;9.68;5.32;;;10.70;99.90;;;;;;4982424;28;20231;-78
2023/05/19 02:17:04;;;;;;;7.05;5.35;;;10.50;99.90;;;;;;4984342;28;20208;-78
2023/05/19 02:19:35;;;;;;;6.43;5.10;;;10.40;99.90;;;;;;4968850;28;20205;-78
2023/05/19 02:22:02;;;;;;;8.65;5.35;;;10.30;99.90;;;;;;4970727;28;20205;-77
2023/05/19 02:24:30;;;;;;;6.38;5.32;;;10.30;99.90;;;;;;4975402;28;20228;-77
2023/05/19 02:26:59;;;;;;;6.63;5.60;;;10.20;99.90;;;;;;4989584;28;20205;-78
2023/05/19 02:29:27;;;;;;;7.70;5.30;;;10.50;99.90;;;;;;4974154;28;20200;-78
2023/05/19 02:31:54;;;;;;;7.20;5.38;;;10.60;99.90;;;;;;4992999;28;20196;-78
2023/05/19 02:34:21;;;;;;;7.15;5.53;;;10.50;99.90;;;;;;4975972;28;20247;-78
2023/05/19 02:36:50;;;;;;;9.07;5.43;;;10.60;99.90;;;;;;4968885;28;20201;-78
2023/05/19 02:39:18;;;;;;;8.93;5.22;;;10.70;99.90;;;;;;4974625;28;20196;-78
2023/05/19 02:41:45;;;;;;;7.80;5.47;;;10.50;99.90;;;;;;4975540;28;20213;-78
2023/05/19 02:44:13;;;;;;;7.28;5.65;;;10.40;99.90;;;;;;4990337;28;20217;-78
2023/05/19 02:46:40;;;;;;;7.55;5.60;;;10.50;99.90;;;;;;4972928;28;20220;-78
2023/05/19 02:49:08;;;;;;;7.38;5.65;;;10.60;99.90;;;;;;4975285;28;20196;-78
2023/05/19 02:51:35;;;;;;;10.02;5.80;;;10.40;99.90;;;;;;4972866;28;20201;-78
2023/05/19 02:54:04;;;;;;;9.25;6.05;;;10.30;99.90;;;;;;4992808;28;20228;-77
2023/05/19 02:56:31;;;;;;;7.47;5.33;;;10.30;99.90;;;;;;4962164;28;20205;-77
2023/05/19 02:58:59;;;;;;;9.32;5.57;;;10.30;99.90;;;;;;4974970;28;20197;-76
2023/05/19 03:01:27;;;;;;;7.90;6.00;;;10.10;99.90;;;;;;4987207;28;20216;-77
2023/05/19 03:03:54;;;;;;;8.73;6.25;;;10.20;99.90;;;;;;4973656;28;20265;-75
2023/05/19 03:06:23;;;;;;;7.47;5.38;;;10.30;99.90;;;;;;4977955;28;20564;-75
2023/05/19 03:08:50;;;;;;;8.47;6.27;;;10.30;99.90;;;;;;4991234;28;20206;-76
2023/05/19 03:11:19;;;;;;;7.65;5.72;;;10.30;99.90;;;;;;4976253;28;20220;-77
2023/05/19 03:13:47;;;;;;;10.40;6.53;;;10.30;99.90;;;;;;4971175;28;20232;-77
2023/05/19 03:16:14;;;;;;;6.72;6.00;;;10.10;99.90;;;;;;4973041;28;20220;-77
2023/05/19 03:18:42;;;;;;;10.67;6.60;;;10.10;99.90;;;;;;4974146;28;20216;-76
2023/05/19 03:21:09;;;;;;;13.53;6.77;;;10.00;99.90;;;;;;4984544;28;20208;-77
2023/05/19 03:23:36;;;;;;;6.80;5.90;;;9.90;99.90;;;;;;4969396;28;20710;-77
2023/05/19 03:26:05;;;;;;;8.80;6.60;;;10.00;99.90;;;;;;4991348;28;20201;-77
2023/05/19 03:28:34;;;;;;;8.30;6.13;;;10.00;99.90;;;;;;4983305;28;20209;-76
2023/05/19 03:31:01;;;;;;;9.53;5.97;;;9.90;99.90;;;;;;4970479;28;20201;-76
2023/05/19 03:33:34;;;;;;;8.93;6.80;;;10.00;99.90;;;;;;4974960;28;20224;-77
2023/05/19 03:36:02;;;;;;;9.07;6.20;;;10.10;99.90;;;;;;4986520;28;20686;-77
2023/05/19 03:38:33;;;;;;;10.07;6.80;;;10.20;99.90;;;;;;4980374;28;20210;-75
2023/05/19 03:41:01;;;;;;;6.87;6.17;;;10.00;99.90;;;;;;4990900;28;20205;-77
2023/05/19 03:43:29;;;;;;;11.20;6.67;;;10.10;99.90;;;;;;4970129;28;20229;-76
2023/05/19 03:46:02;;;;;;;8.03;6.30;;;10.10;99.90;;;;;;4990384;28;20204;-77
2023/05/19 03:48:56;;;;;;;7.83;6.80;;;10.20;99.90;;;;;;4974900;28;20201;-76
2023/05/19 03:51:41;;;;;;;8.70;6.03;;;9.80;99.90;;;;;;4976562;28;20649;-76
2023/05/19 03:54:22;;;;;;;7.47;6.70;;;9.80;99.90;;;;;;4965877;28;20718;-74
2023/05/19 03:56:49;;;;;;;7.87;6.30;;;9.90;99.90;;;;;;4972793;28;20201;-76
2023/05/19 03:59:17;;;;;;;7.77;6.37;;;10.00;99.90;;;;;;4971838;28;20208;-76
2023/05/19 04:01:46;;;;;;;8.40;6.13;;;10.00;99.90;;;;;;4990520;28;20213;-76
2023/05/19 04:04:13;;;;;;;10.17;6.70;;;10.10;99.90;;;;;;4971336;28;20601;-76
2023/05/19 04:06:41;;;;;;;7.73;6.27;;;10.00;99.90;;;;;;4972516;28;20547;-76
2023/05/19 04:09:12;;;;;;;11.00;6.60;;;10.00;99.90;;;;;;4970673;28;20209;-76
2023/05/19 04:11:40;;;;;;;9.53;6.57;;;10.10;99.90;;;;;;4970937;28;20563;-76
2023/05/19 04:14:08;;;;;;;10.40;6.82;;;10.00;99.90;;;;;;4962041;28;20225;-76
2023/05/19 04:16:35;;;;;;;9.75;6.78;;;10.10;99.90;;;;;;4967883;28;20595;-76
2023/05/19 04:19:04;;;;;;;8.23;6.40;;;10.20;99.90;;;;;;4988790;28;20697;-76
2023/05/19 04:21:32;;;;;;;9.57;6.68;;;10.20;99.90;;;;;;4972283;28;20587;-76
2023/05/19 04:24:00;;;;;;;9.77;6.33;;;10.20;99.90;;;;;;4973677;28;20227;-76
2023/05/19 04:26:29;;;;;;;10.88;6.82;;;10.30;99.90;;;;;;4971042;28;20197;-76
2023/05/19 04:28:57;;;;;;;9.83;6.23;;;10.40;99.90;;;;;;4973062;28;20204;-76
2023/05/19 04:31:26;;;;;;;7.05;6.13;;;10.40;99.90;;;;;;4972475;28;20197;-76
2023/05/19 04:33:53;;;;;;;8.67;6.87;;;10.30;99.90;;;;;;4970692;28;20228;-76
2023/05/19 04:36:23;;;;;;;9.97;6.30;;;10.30;99.90;;;;;;4965499;28;20282;-76
2023/05/19 04:38:53;;;;;;;9.97;6.90;;;10.50;99.90;;;;;;4966501;28;20281;-76
2023/05/19 04:41:23;;;;;;;9.57;6.43;;;10.60;99.90;;;;;;4989619;28;20209;-76
2023/05/19 04:43:50;;;;;;;8.43;6.23;;;10.60;99.90;;;;;;4979168;28;20568;-76
2023/05/19 04:46:22;;;;;;;7.83;6.80;;;10.60;99.90;;;;;;4972103;28;20201;-76
2023/05/19 04:48:50;;;;;;;7.55;6.32;;;10.70;99.90;;;;;;4982473;28;20197;-76
2023/05/19 04:51:17;;;;;;;9.52;7.03;;;10.50;99.90;;;;;;4969208;28;20201;-76
2023/05/19 04:53:47;;;;;;;10.17;7.20;;;10.60;99.90;;;;;;4987275;28;20228;-76
2023/05/19 04:56:15;;;;;;;10.15;7.18;;;10.80;99.90;;;;;;4972672;28;20189;-76
2023/05/19 04:58:43;;;;;;;10.55;6.63;;;10.80;99.90;;;;;;4972223;28;20212;-76
2023/05/19 05:01:12;;;;;;;10.23;6.50;;;10.70;99.90;;;;;;4987363;28;20208;-76
2023/05/19 05:03:40;;;;;;;8.13;6.10;;;10.50;99.90;;;;;;4983692;28;20225;-76
2023/05/19 05:06:07;;;;;;;8.70;7.20;;;10.60;99.90;;;;;;4969527;28;20212;-76
2023/05/19 05:08:38;;;;;;;9.85;6.55;;;10.50;99.90;;;;;;4984804;28;20208;-76
2023/05/19 05:11:08;;;;;;;9.23;6.78;;;10.60;99.90;;;;;;4987887;28;20224;-76
2023/05/19 05:13:36;;;;;;;8.63;6.93;;;10.80;99.90;;;;;;4970232;28;20229;-76
2023/05/19 05:16:05;;;;;;;7.07;6.37;;;10.80;99.90;;;;;;4973201;28;20201;-76
2023/05/19 05:18:33;;;;;;;8.93;7.15;;;10.90;99.90;;;;;;4983702;28;20207;-76
2023/05/19 05:21:01;;;;;;;7.45;6.63;;;10.90;99.90;;;;;;4987657;28;20201;-75
2023/05/19 05:23:30;;;;;;;8.57;6.28;;;10.90;99.90;;;;;;4979476;28;20598;-76
2023/05/19 05:25:58;;;;;;;12.25;6.85;;;11.00;99.90;;;;;;4988962;28;20659;-76
2023/05/19 05:28:27;;;;;;;11.23;6.40;;;11.10;99.90;;;;;;4970763;28;20205;-76
2023/05/19 05:30:56;;;;;;;7.22;6.32;;;11.30;99.90;;;;;;4987292;28;20204;-76
2023/05/19 05:33:26;;;;;;;10.73;7.13;;;11.30;99.90;;;;;;4970694;28;20213;-76
2023/05/19 05:35:54;;;;;;;9.38;6.78;;;11.30;99.90;;;;;;4955820;28;20205;-76
2023/05/19 05:38:21;;;;;;;9.63;7.35;;;11.00;99.90;;;;;;4971501;28;20208;-76
2023/05/19 05:40:49;;;;;;;8.68;7.35;;;11.20;99.90;;;;;;4973728;28;20203;-76
2023/05/19 05:43:16;;;;;;;11.80;6.65;;;11.40;99.90;;;;;;4990808;28;20228;-76
2023/05/19 05:45:51;;;;;;;10.13;6.28;;;11.40;99.90;;;;;;4988906;28;20204;-76
2023/05/19 05:48:21;;;;;;;11.40;7.20;;;11.50;99.90;;;;;;4970817;28;20648;-76
2023/05/19 05:50:56;;;;;;;12.18;6.78;;;11.50;99.90;;;;;;4966331;28;20201;-76
2023/05/19 05:53:36;;;;;;;8.15;6.75;;;11.70;99.90;;;;;;4984426;28;20220;-76
2023/05/19 05:56:05;;;;;;;8.60;6.35;;;11.70;99.90;;;;;;4984795;28;20201;-75
2023/05/19 05:58:40;;;;;;;8.95;6.63;;;11.60;99.90;;;;;;4970376;28;20216;-76
2023/05/19 06:01:10;;;;;;;7.28;6.53;;;11.70;99.90;;;;;;4989140;28;20216;-76
2023/05/19 06:04:00;;;;;;;8.07;5.75;;;11.80;99.90;;;;;;4972930;28;20220;-76
2023/05/19 06:06:28;;;;;;;9.52;6.57;;;12.00;99.90;;;;;;4972449;28;20197;-76
2023/05/19 06:08:55;;;;;;;11.45;6.20;;;12.00;99.90;;;;;;4989486;28;20203;-76
2023/05/19 06:11:24;;;;;;;8.52;6.18;;;11.90;99.90;;;;;;4968753;28;20209;-76
2023/05/19 06:13:56;;;;;;;8.48;5.93;;;11.80;99.90;;;;;;4984850;28;20233;-76
2023/05/19 06:16:47;;;;;;;11.38;6.22;;;11.90;99.90;;;;;;4954921;29;20225;-76
2023/05/19 06:19:15;;;;;;;7.28;5.90;;;12.10;99.90;;;;;;4966577;28;20575;-76
2023/05/19 06:21:43;;;;;;;8.75;6.18;;;12.20;99.90;;;;;;4973732;28;20212;-76
2023/05/19 06:24:10;;;;;;;7.63;6.15;;;12.50;99.90;;;;;;4972322;28;20239;-75
2023/05/19 06:26:38;;;;;;;7.78;5.88;;;12.30;99.90;;;;;;4972165;28;20204;-76
2023/05/19 06:29:05;;;;;;;8.07;5.75;;;12.40;99.90;;;;;;4986637;28;20212;-76
2023/05/19 06:31:35;;;;;;;6.65;5.45;;;12.40;99.90;;;;;;4987401;28;20205;-76
2023/05/19 06:34:16;;;;;;;7.68;5.75;;;12.60;99.90;;;;;;4982975;28;20212;-76
2023/05/19 06:36:44;;;;;;;8.90;5.68;;;12.80;99.90;;;;;;4967890;28;20255;-76
2023/05/19 06:39:13;;;;;;;8.13;5.65;;;12.70;99.90;;;;;;4984194;28;20197;-76
2023/05/19 06:41:41;;;;;;;9.27;6.15;;;12.50;99.90;;;;;;4977448;28;20682;-76
2023/05/19 06:44:09;;;;;;;8.82;5.72;;;12.60;99.90;;;;;;4965511;28;20594;-76
2023/05/19 06:46:36;;;;;;;11.20;5.32;;;12.60;99.90;;;;;;4962290;28;20741;-76
2023/05/19 06:49:04;;;;;;;8.48;5.15;;;12.70;99.90;;;;;;4962821;28;20213;-76
2023/05/19 06:51:38;;;;;;;7.68;5.47;;;12.60;99.90;;;;;;4979998;28;20202;-76
2023/05/19 06:54:24;;;;;;;8.15;5.72;;;12.70;99.90;;;;;;4979575;28;20213;-77
2023/05/19 06:56:52;;;;;;;7.88;5.45;;;12.80;99.90;;;;;;4967761;28;20558;-76
2023/05/19 06:59:21;;;;;;;8.52;5.70;;;13.10;99.90;;;;;;4965939;28;20209;-79
2023/05/19 07:01:48;;;;;;;8.60;5.05;;;13.20;99.90;;;;;;4961297;28;20201;-76
2023/05/19 07:04:17;;;;;;;6.97;5.32;;;13.30;99.90;;;;;;4973134;28;20228;-76
2023/05/19 07:06:49;;;;;;;11.73;5.47;;;13.20;99.90;;;;;;4980973;28;20206;-76
2023/05/19 07:09:17;;;;;;;7.38;5.32;;;13.40;99.90;;;;;;4981825;28;20205;-76
2023/05/19 07:11:46;;;;;;;6.32;4.28;;;13.60;99.90;;;;;;4993058;28;20197;-76
2023/05/19 07:14:13;;;;;;;9.43;5.35;;;13.60;99.90;;;;;;4993314;28;20221;-76
2023/05/19 07:16:41;;;;;;;6.18;4.68;;;13.70;99.90;;;;;;4993040;28;20219;-76
2023/05/19 07:19:09;;;;;;;7.40;4.32;;;13.60;99.90;;;;;;4972528;28;20208;-76
2023/05/19 07:21:36;;;;;;;6.05;4.28;;;13.70;99.90;;;;;;4969748;28;20214;-76
2023/05/19 07:24:06;;;;;;;7.75;4.47;;;13.50;99.90;;;;;;4989667;28;20225;-76
2023/05/19 07:26:33;;;;;;;6.00;3.53;;;13.70;99.90;;;;;;4992883;28;20193;-76
2023/05/19 07:29:01;;;;;;;6.95;3.75;;;13.70;99.90;;;;;;4977202;28;20197;-77
2023/05/19 07:31:30;;;;;;;7.22;4.05;;;13.80;99.90;;;;;;4992635;28;20738;-76
2023/05/19 07:33:58;;;;;;;6.00;3.45;;;14.00;99.90;;;;;;4991443;28;20672;-76
2023/05/19 07:36:26;;;;;;;6.30;3.88;;;14.00;99.90;;;;;;4973809;28;20212;-76
2023/05/19 07:38:53;;;;;;;5.10;3.95;;;14.10;99.90;;;;;;4991008;28;20197;-77
2023/05/19 07:41:22;;;;;;;9.07;4.03;;;14.10;99.90;;;;;;4987947;28;20205;-76
2023/05/19 07:43:50;;;;;;;7.00;3.80;;;14.10;99.90;;;;;;4968914;28;20695;-76
2023/05/19 07:46:18;;;;;;;7.50;4.00;;;14.30;99.90;;;;;;4969350;28;20209;-77
2023/05/19 07:48:45;;;;;;;5.53;3.42;;;14.40;99.40;;;;;;4969208;28;20197;-76
2023/05/19 07:51:13;;;;;;;6.60;4.00;;;14.60;99.30;;;;;;4983574;28;20221;-76
2023/05/19 07:53:40;;;;;;;7.15;3.78;;;14.50;99.60;;;;;;4970272;28;20225;-76
2023/05/19 07:56:14;;;;;;;4.05;3.00;;;14.60;98.90;;;;;;4973798;28;20197;-76
2023/05/19 07:58:42;;;;;;;5.40;3.15;;;14.60;99.00;;;;;;4992092;28;20541;-76
2023/05/19 08:01:10;;;;;;;7.05;3.03;;;14.60;98.80;;;;;;4986955;28;20208;-76
2023/05/19 08:03:37;;;;;;;6.25;3.17;;;14.60;98.30;;;;;;4974357;28;20224;-77
2023/05/19 08:06:12;;;;;;;6.25;3.30;;;14.70;98.40;;;;;;4978391;28;20208;-76
2023/05/19 08:08:39;;;;;;;7.93;3.00;;;14.80;98.30;;;;;;4996521;28;20201;-76
2023/05/19 08:11:06;;;;;;;3.97;2.85;;;14.90;98.00;;;;;;4997273;28;20651;-76
2023/05/19 08:13:34;;;;;;;6.40;2.80;;;15.00;97.10;;;;;;4980305;28;20228;-76
2023/05/19 08:16:03;;;;;;;3.78;2.90;;;15.00;96.50;;;;;;4997227;28;20216;-76
2023/05/19 08:18:31;;;;;;;4.65;2.83;;;14.90;96.60;;;;;;4995772;28;20216;-76
2023/05/19 08:20:59;;;;;;;5.22;2.80;;;15.00;96.30;;;;;;4995830;28;20201;-76
2023/05/19 08:23:26;;;;;;;6.95;3.17;;;15.10;96.70;;;;;;4996310;28;20223;-76
2023/05/19 08:25:53;;;;;;;6.35;3.03;;;15.20;95.90;;;;;;4979693;28;20232;-76
2023/05/19 08:28:21;;;;;;;4.93;2.65;;;15.20;96.20;;;;;;4995315;28;20201;-76
2023/05/19 08:30:51;;;;;;;4.07;2.53;;;15.30;96.40;;;;;;4979201;28;20201;-76
2023/05/19 08:33:20;;;;;;;5.22;2.50;;;15.30;95.90;;;;;;4987096;28;20222;-76
2023/05/19 08:35:48;;;;;;;5.90;2.20;;;15.50;95.50;;;;;;4960095;28;20204;-76
2023/05/19 08:38:15;;;;;;;5.80;2.22;;;15.50;94.80;;;;;;4960718;28;20205;-76
2023/05/19 08:40:46;;;;;;;5.57;3.22;;;15.50;94.80;;;;;;4979002;28;20205;-76
2023/05/19 08:43:13;;;;;;;6.13;2.70;;;15.70;94.60;;;;;;4987840;28;20204;-76
2023/05/19 08:45:45;;;;;;;5.50;2.30;;;15.80;95.20;;;;;;4970759;28;20236;-76
2023/05/19 08:48:13;;;;;;;6.78;2.15;;;15.90;94.60;;;;;;4972507;28;20201;-76
2023/05/19 08:50:51;;;;;;;5.47;2.00;;;15.90;92.70;;;;;;4976957;28;20213;-76
2023/05/19 08:53:22;;;;;;;4.13;2.03;;;16.00;93.60;;;;;;4995326;28;20224;-76
2023/05/19 08:55:58;;;;;;;4.25;1.88;;;16.10;93.20;;;;;;4971338;28;20213;-76
2023/05/19 08:58:26;;;;;;;3.30;2.50;;;16.00;92.50;;;;;;4956676;28;20201;-76
2023/05/19 09:00:56;;;;;;;4.80;1.88;;;16.10;92.40;;;;;;4990464;28;20193;-76
2023/05/19 09:03:25;;;;;;;5.80;2.20;;;15.90;91.60;;;;;;4978487;28;20742;-76
2023/05/19 09:05:54;;;;;;;5.85;2.28;;;15.90;91.70;;;;;;4982397;28;20675;-76
2023/05/19 09:08:21;;;;;;;7.35;2.35;;;15.80;91.80;;;;;;4988392;28;20200;-76
2023/05/19 09:10:48;;;;;;;6.00;2.20;;;16.00;92.60;;;;;;4982087;28;20204;-76
2023/05/19 09:13:16;;;;;;;2.67;1.88;;;16.10;91.90;;;;;;4990604;28;20236;-76
2023/05/19 09:15:45;;;;;;;5.57;2.30;;;16.30;90.90;;;;;;4990160;28;20232;-76
2023/05/19 09:18:14;;;;;;;3.67;2.30;;;16.30;90.00;;;;;;4973872;28;20208;-76
2023/05/19 09:20:48;;;;;;;5.70;1.70;;;16.20;90.20;;;;;;4974007;28;20209;-76
2023/05/19 09:23:18;;;;;;;6.00;2.25;;;16.30;89.80;;;;;;4971997;28;20231;-77
2023/05/19 09:25:49;;;;;;;5.28;1.92;;;16.50;90.00;;;;;;4974556;28;20213;-77
2023/05/19 09:28:28;;;;;;;3.33;2.13;;;16.50;89.90;;;;;;4993672;28;20205;-76
2023/05/19 09:31:01;;;;;;;4.30;1.90;;;16.50;87.60;;;;;;4968110;28;20212;-76
2023/05/19 09:33:28;;;;;;;4.90;1.88;;;16.60;88.00;;;;;;4970332;28;20229;-76
2023/05/19 09:35:56;;;;;;;3.90;2.33;;;16.60;86.80;;;;;;4976186;28;20212;-76
2023/05/19 09:38:26;;;;;;;3.22;1.48;;;16.60;86.30;;;;;;4977139;28;20200;-76
2023/05/19 09:40:56;;;;;;;4.30;1.70;;;16.40;84.00;;;;;;4977510;28;20212;-76
2023/05/19 09:43:24;;;;;;;3.17;1.63;;;16.30;84.20;;;;;;4976852;28;20221;-76
2023/05/19 09:45:56;;;;;;;3.42;1.75;;;16.50;87.40;;;;;;4971014;28;20229;-76
2023/05/19 09:48:33;;;;;;;5.20;1.60;;;16.70;87.10;;;;;;4982772;28;20610;-76
2023/05/19 09:51:01;;;;;;;3.78;1.67;;;16.80;84.70;;;;;;4976872;28;20208;-76
2023/05/19 09:53:31;;;;;;;4.07;2.00;;;16.80;85.20;;;;;;4978292;28;20224;-77
2023/05/19 09:55:58;;;;;;;6.30;2.60;;;17.00;86.40;;;;;;4977217;28;20189;-77
2023/05/19 09:58:26;;;;;;;2.38;1.60;;;17.00;86.60;;;;;;4989414;28;20204;-77
2023/05/19 10:00:54;;;;;;;4.65;1.80;;;16.90;84.80;;;;;;4976172;28;20209;-76
2023/05/19 10:03:23;;;;;;;3.17;1.38;;;16.90;84.40;;;;;;4984950;28;20232;-78
2023/05/19 10:06:07;;;;;;;;;;;;;;;;;;;;;
2023/05/19 10:08:49;;;;;;;3.33;2.13;;;17.00;83.60;;;;;;4969425;28;20525;-76
2023/05/19 10:11:17;;;;;;;5.05;1.38;;;17.00;82.10;;;;;;4987234;28;20197;-76
2023/05/19 10:13:46;;;;;;;6.80;1.63;;;17.10;81.20;;;;;;4968690;28;20235;-76
2023/05/19 10:16:15;;;;;;;4.00;1.92;;;17.20;84.10;;;;;;4982598;28;20217;-76
2023/05/19 10:18:43;;;;;;;3.60;1.90;;;17.10;82.00;;;;;;4971515;28;20670;-76
2023/05/19 10:21:12;;;;;;;4.82;2.22;;;17.20;79.50;;;;;;4988377;28;20200;-76
2023/05/19 10:23:39;;;;;;;3.35;1.80;;;17.20;81.70;;;;;;4969488;28;20607;-76
2023/05/19 10:26:09;;;;;;;4.55;2.05;;;17.30;77.10;;;;;;4969603;28;20228;-76
2023/05/19 10:28:39;;;;;;;8.52;2.00;;;17.30;79.00;;;;;;4972586;28;20204;-76
2023/05/19 10:31:11;;;;;;;3.72;1.80;;;17.40;81.80;;;;;;4989277;28;20201;-76
2023/05/19 10:34:00;;;;;;;3.63;1.63;;;17.60;81.20;;;;;;4972558;28;20240;-76
2023/05/19 10:36:44;;;;;;;5.93;2.10;;;17.80;78.60;;;;;;4989475;28;20201;-77
2023/05/19 10:39:17;;;;;;;3.85;1.73;;;17.80;77.40;;;;;;4990179;28;20297;-77
2023/05/19 10:41:57;;;;;;;4.45;1.92;;;17.80;78.40;;;;;;4969861;28;20908;-76
2023/05/19 10:44:38;;;;;;;3.53;1.67;;;18.10;79.70;;;;;;4984512;28;20228;-76
2023/05/19 10:47:06;;;;;;;6.22;1.90;;;18.10;76.90;;;;;;4983395;28;20196;-76
2023/05/19 10:49:36;;;;;;;3.20;1.55;;;18.10;74.00;;;;;;4973357;28;20213;-76
2023/05/19 10:52:03;;;;;;;3.60;1.83;;;18.20;76.60;;;;;;4990002;28;20209;-78
2023/05/19 10:54:42;;;;;;;4.40;2.03;;;18.00;77.30;;;;;;4971137;28;20240;-78
2023/05/19 10:57:14;;;;;;;3.10;1.77;;;18.20;78.00;;;;;;4988466;28;20197;-79
2023/05/19 10:59:44;;;;;;;6.63;2.13;;;18.40;76.70;;;;;;4979006;28;20201;-79
2023/05/19 11:02:39;;;;;;;3.00;1.83;;;18.50;76.10;;;;;;4974381;28;20566;-79
2023/05/19 11:05:13;;;;;;;4.57;1.70;;;18.40;76.10;;;;;;4968109;28;20224;-79
2023/05/19 11:07:44;;;;;;;3.05;2.00;;;18.50;74.90;;;;;;4974128;28;20663;-79
2023/05/19 11:10:12;;;;;;;2.83;1.90;;;18.70;76.70;;;;;;4969954;28;20209;-78
2023/05/19 11:12:45;;;;;;;4.20;1.85;;;18.80;76.00;;;;;;4995649;28;20205;-79
2023/05/19 11:15:16;;;;;;;5.60;2.22;;;18.90;76.10;;;;;;4986748;28;20252;-79
2023/05/19 11:17:48;;;;;;;4.90;1.58;;;18.90;75.60;;;;;;4973492;28;20209;-78
2023/05/19 11:20:22;;;;;;;3.97;1.90;;;18.90;76.70;;;;;;4978809;28;20647;-78
2023/05/19 11:23:06;;;;;;;3.70;2.15;;;18.90;73.60;;;;;;4974376;28;20208;-78
2023/05/19 11:25:47;;;;;;;4.03;1.75;;;18.70;74.10;;;;;;4973116;28;20213;-78
2023/05/19 11:28:24;;;;;;;7.00;1.88;;;19.00;76.60;;;;;;4992095;28;20197;-78
2023/05/19 11:30:56;;;;;;;3.03;1.73;;;19.10;72.10;;;;;;4969085;28;20219;-78
2023/05/19 11:33:25;;;;;;;4.93;1.92;;;19.40;74.20;;;;;;4987348;28;20595;-78
2023/05/19 11:35:56;;;;;;;4.43;1.63;;;19.30;72.60;;;;;;4966817;28;20200;-78
2023/05/19 11:38:24;;;;;;;4.18;1.67;;;19.60;73.50;;;;;;4973936;28;20204;-78
2023/05/19 11:40:53;;;;;;;5.35;2.30;;;19.70;73.10;;;;;;4979594;28;20208;-78
2023/05/19 11:43:24;;;;;;;4.45;2.10;;;19.40;70.50;;;;;;4990830;28;20244;-78
2023/05/19 11:45:51;;;;;;;3.78;1.80;;;18.90;73.10;;;;;;4975445;28;20209;-78
2023/05/19 11:48:21;;;;;;;3.85;2.03;;;19.10;74.10;;;;;;4976024;28;20213;-78
2023/05/19 11:50:48;;;;;;;4.38;2.20;;;19.40;73.60;;;;;;4975407;28;20201;-78
2023/05/19 11:53:19;;;;;;;4.50;2.03;;;19.60;74.60;;;;;;4990227;28;20224;-78
2023/05/19 11:55:47;;;;;;;3.05;1.95;;;19.80;74.40;;;;;;4968119;28;20197;-78
2023/05/19 11:58:15;;;;;;;5.22;2.03;;;19.80;73.00;;;;;;4968304;28;20209;-78
2023/05/19 12:00:46;;;;;;;3.80;1.73;;;19.80;74.40;;;;;;4977479;28;20555;-78
2023/05/19 12:03:13;;;;;;;4.63;2.08;;;20.20;71.80;;;;;;4993889;28;20576;-78
2023/05/19 12:05:44;;;;;;;4.35;1.80;;;20.10;71.80;;;;;;4991051;28;20573;-78
2023/05/19 12:08:12;;;;;;;5.32;1.85;;;19.90;70.10;;;;;;4974962;28;20201;-78
2023/05/19 12:10:40;;;;;;;5.05;1.92;;;20.00;68.90;;;;;;4972507;28;20204;-78
2023/05/19 12:13:08;;;;;;;3.30;2.00;;;20.30;69.50;;;;;;4971035;28;20205;-78
2023/05/19 12:15:36;;;;;;;4.20;2.35;;;20.10;70.80;;;;;;4982263;28;20564;-78
2023/05/19 12:18:05;;;;;;;4.07;1.60;;;20.30;71.40;;;;;;4992361;28;20212;-78
2023/05/19 12:20:34;;;;;;;3.60;1.92;;;20.30;73.90;;;;;;4991169;28;20683;-78
2023/05/19 12:23:02;;;;;;;3.08;1.88;;;20.60;70.60;;;;;;4997125;28;20213;-78
2023/05/19 12:26:16;;;;;;;;;;;;;;;;;;;;;
2023/05/19 12:28:45;;;;;;;5.90;2.03;;;20.10;71.90;;;;;;4928511;28;20206;-78
2023/05/19 12:31:13;;;;;;;3.88;1.77;;;20.60;70.20;;;;;;4985191;28;20212;-78
2023/05/19 12:33:41;;;;;;;4.10;1.90;;;20.50;67.50;;;;;;4994905;28;20244;-78
2023/05/19 12:36:12;;;;;;;5.10;2.00;;;20.40;69.70;;;;;;4995662;28;20197;-79
2023/05/19 12:38:43;;;;;;;4.03;1.70;;;20.50;68.50;;;;;;4993205;28;20280;-79
2023/05/19 12:41:11;;;;;;;2.83;1.85;;;20.60;68.80;;;;;;4978465;28;20205;-79
2023/05/19 12:43:39;;;;;;;4.00;2.15;;;20.70;66.50;;;;;;4978362;28;20225;-79
2023/05/19 12:46:10;;;;;;;4.80;1.98;;;20.70;69.50;;;;;;5000432;28;20578;-79
2023/05/19 12:48:42;;;;;;;3.15;2.13;;;20.10;67.00;;;;;;4986201;28;20205;-79
2023/05/19 12:51:10;;;;;;;4.53;1.70;;;20.20;66.90;;;;;;5000026;28;20201;-79
2023/05/19 12:53:39;;;;;;;3.55;1.80;;;20.40;68.30;;;;;;4987661;28;20232;-79
2023/05/19 12:56:13;;;;;;;3.40;2.00;;;20.60;65.40;;;;;;4968278;28;20212;-78
2023/05/19 12:58:41;;;;;;;3.22;1.55;;;21.00;64.70;;;;;;4972563;28;20200;-79
2023/05/19 13:01:16;;;;;;;3.53;1.85;;;20.70;64.50;;;;;;4973043;28;20208;-79
2023/05/19 13:03:47;;;;;;;3.30;1.90;;;21.20;63.10;;;;;;4974596;28;20229;-79